sensor_id;sensor_type;location;lat;lon;timestamp;temperature;humidity
28773;DHT22;15925;51.222;5.678;2023-12-14T00:01:45;9.00;99.90
28773;DHT22;15925;51.222;5.678;2023-12-14T00:04:12;9.10;99.90
28773;DHT22;15925;51.222;5.678;2023-12-14T00:06:37;9.10;99.90
28773;DHT22;15925;51.222;5.678;2023-12-14T00:09:03;9.10;99.90
28773;DHT22;15925;51.222;5.678;2023-12-14T00:11:29;9.10;99.90
28773;DHT22;15925;51.222;5.678;2023-12-14T00:13:55;9.10;99.90
28773;DHT22;15925;51.222;5.678;2023-12-14T00:16:21;9.10;99.90
28773;DHT22;15925;51.222;5.678;2023-12-14T00:18:47;9.10;99.90
28773;DHT22;15925;51.222;5.678;2023-12-14T00:21:12;9.10;99.90
28773;DHT22;15925;51.222;5.678;2023-12-14T00:23:38;9.00;99.90
28773;DHT22;15925;51.222;5.678;2023-12-14T00:26:04;9.00;99.90
28773;DHT22;15925;51.222;5.678;2023-12-14T00:28:29;9.00;99.90
28773;DHT22;15925;51.222;5.678;2023-12-14T00:30:55;8.90;99.90
28773;DHT22;15925;51.222;5.678;2023-12-14T00:33:21;8.90;99.90
28773;DHT22;15925;51.222;5.678;2023-12-14T00:35:46;8.80;99.90
28773;DHT22;15925;51.222;5.678;2023-12-14T00:38:12;8.80;99.90
28773;DHT22;15925;51.222;5.678;2023-12-14T00:40:38;8.80;99.90
28773;DHT22;15925;51.222;5.678;2023-12-14T00:43:03;8.80;99.90
28773;DHT22;15925;51.222;5.678;2023-12-14T00:45:29;8.70;99.90
28773;DHT22;15925;51.222;5.678;2023-12-14T00:47:55;8.70;99.90
28773;DHT22;15925;51.222;5.678;2023-12-14T00:50:21;8.70;99.90
28773;DHT22;15925;51.222;5.678;2023-12-14T00:52:46;8.70;99.90
28773;DHT22;15925;51.222;5.678;2023-12-14T00:55:12;8.70;99.90
28773;DHT22;15925;51.222;5.678;2023-12-14T00:57:38;8.60;99.90
28773;DHT22;15925;51.222;5.678;2023-12-14T01:00:04;8.60;99.90
28773;DHT22;15925;51.222;5.678;2023-12-14T01:02:30;8.70;99.90
28773;DHT22;15925;51.222;5.678;2023-12-14T01:04:55;8.60;99.90
28773;DHT22;15925;51.222;5.678;2023-12-14T01:07:21;8.70;99.90
28773;DHT22;15925;51.222;5.678;2023-12-14T01:09:47;8.60;99.90
28773;DHT22;15925;51.222;5.678;2023-12-14T01:12:12;8.60;99.90
28773;DHT22;15925;51.222;5.678;2023-12-14T01:14:38;8.50;99.90
28773;DHT22;15925;51.222;5.678;2023-12-14T01:17:04;8.50;99.90
28773;DHT22;15925;51.222;5.678;2023-12-14T01:19:30;8.50;99.90
28773;DHT22;15925;51.222;5.678;2023-12-14T01:21:55;8.40;99.90
28773;DHT22;15925;51.222;5.678;2023-12-14T01:24:21;8.20;99.90
28773;DHT22;15925;51.222;5.678;2023-12-14T01:26:47;8.20;99.90
28773;DHT22;15925;51.222;5.678;2023-12-14T01:29:12;8.20;99.90
28773;DHT22;15925;51.222;5.678;2023-12-14T01:31:38;8.10;99.90
28773;DHT22;15925;51.222;5.678;2023-12-14T01:34:04;8.10;99.90
28773;DHT22;15925;51.222;5.678;2023-12-14T01:36:30;8.00;99.90
28773;DHT22;15925;51.222;5.678;2023-12-14T01:38:56;8.00;99.90
28773;DHT22;15925;51.222;5.678;2023-12-14T01:41:22;8.00;99.90
28773;DHT22;15925;51.222;5.678;2023-12-14T01:43:47;8.00;99.90
28773;DHT22;15925;51.222;5.678;2023-12-14T01:46:13;8.00;99.90
28773;DHT22;15925;51.222;5.678;2023-12-14T01:48:40;7.90;99.90
28773;DHT22;15925;51.222;5.678;2023-12-14T01:51:06;7.90;99.90
28773;DHT22;15925;51.222;5.678;2023-12-14T01:53:32;7.80;99.90
28773;DHT22;15925;51.222;5.678;2023-12-14T01:55:57;7.80;99.90
28773;DHT22;15925;51.222;5.678;2023-12-14T01:58:23;7.80;99.90
28773;DHT22;15925;51.222;5.678;2023-12-14T02:03:19;7.80;99.90
28773;DHT22;15925;51.222;5.678;2023-12-14T02:05:45;7.80;99.90
28773;DHT22;15925;51.222;5.678;2023-12-14T02:08:11;7.80;99.90
28773;DHT22;15925;51.222;5.678;2023-12-14T02:10:36;7.70;99.90
28773;DHT22;15925;51.222;5.678;2023-12-14T02:13:03;7.70;99.90
28773;DHT22;15925;51.222;5.678;2023-12-14T02:15:29;7.70;99.90
28773;DHT22;15925;51.222;5.678;2023-12-14T02:17:55;7.70;99.90
28773;DHT22;15925;51.222;5.678;2023-12-14T02:20:21;7.70;99.90
28773;DHT22;15925;51.222;5.678;2023-12-14T02:22:57;7.70;99.90
28773;DHT22;15925;51.222;5.678;2023-12-14T02:25:24;7.60;99.90
28773;DHT22;15925;51.222;5.678;2023-12-14T02:27:51;7.60;99.90
28773;DHT22;15925;51.222;5.678;2023-12-14T02:30:18;7.50;99.90
28773;DHT22;15925;51.222;5.678;2023-12-14T02:32:46;7.50;99.90
28773;DHT22;15925;51.222;5.678;2023-12-14T02:35:12;7.40;99.90
28773;DHT22;15925;51.222;5.678;2023-12-14T02:37:37;7.50;99.90
28773;DHT22;15925;51.222;5.678;2023-12-14T02:40:06;7.50;99.90
28773;DHT22;15925;51.222;5.678;2023-12-14T02:42:33;7.50;99.90
28773;DHT22;15925;51.222;5.678;2023-12-14T02:45:00;7.50;99.90
28773;DHT22;15925;51.222;5.678;2023-12-14T02:47:28;7.40;99.90
28773;DHT22;15925;51.222;5.678;2023-12-14T02:49:54;7.50;99.90
28773;DHT22;15925;51.222;5.678;2023-12-14T02:52:20;7.50;99.90
28773;DHT22;15925;51.222;5.678;2023-12-14T02:54:46;7.40;99.90
28773;DHT22;15925;51.222;5.678;2023-12-14T02:57:12;7.40;99.90
28773;DHT22;15925;51.222;5.678;2023-12-14T02:59:37;7.40;99.90
28773;DHT22;15925;51.222;5.678;2023-12-14T03:02:05;7.50;99.90
28773;DHT22;15925;51.222;5.678;2023-12-14T03:04:31;7.40;99.90
28773;DHT22;15925;51.222;5.678;2023-12-14T03:06:57;7.30;99.90
28773;DHT22;15925;51.222;5.678;2023-12-14T03:09:28;7.40;99.90
28773;DHT22;15925;51.222;5.678;2023-12-14T03:11:54;7.30;99.90
28773;DHT22;15925;51.222;5.678;2023-12-14T03:14:20;7.30;99.90
28773;DHT22;15925;51.222;5.678;2023-12-14T03:16:46;7.30;99.90
28773;DHT22;15925;51.222;5.678;2023-12-14T03:19:12;7.40;99.90
28773;DHT22;15925;51.222;5.678;2023-12-14T03:21:37;7.40;99.90
28773;DHT22;15925;51.222;5.678;2023-12-14T03:24:03;7.40;99.90
28773;DHT22;15925;51.222;5.678;2023-12-14T03:26:29;7.40;99.90
28773;DHT22;15925;51.222;5.678;2023-12-14T03:28:55;7.40;99.90
28773;DHT22;15925;51.222;5.678;2023-12-14T03:31:21;7.30;99.90
28773;DHT22;15925;51.222;5.678;2023-12-14T03:33:46;7.30;99.90
28773;DHT22;15925;51.222;5.678;2023-12-14T03:36:12;7.30;99.90
28773;DHT22;15925;51.222;5.678;2023-12-14T03:38:38;7.30;99.90
28773;DHT22;15925;51.222;5.678;2023-12-14T03:41:04;7.30;99.90
28773;DHT22;15925;51.222;5.678;2023-12-14T03:43:29;7.30;99.90
28773;DHT22;15925;51.222;5.678;2023-12-14T03:45:55;7.40;99.90
28773;DHT22;15925;51.222;5.678;2023-12-14T03:48:21;7.40;99.90
28773;DHT22;15925;51.222;5.678;2023-12-14T03:50:47;7.40;99.90
28773;DHT22;15925;51.222;5.678;2023-12-14T03:53:12;7.30;99.90
28773;DHT22;15925;51.222;5.678;2023-12-14T03:55:38;7.20;99.90
28773;DHT22;15925;51.222;5.678;2023-12-14T03:58:04;7.20;99.90
28773;DHT22;15925;51.222;5.678;2023-12-14T04:00:29;7.10;99.90
28773;DHT22;15925;51.222;5.678;2023-12-14T04:02:55;7.10;99.90
28773;DHT22;15925;51.222;5.678;2023-12-14T04:05:22;7.00;99.90
28773;DHT22;15925;51.222;5.678;2023-12-14T04:07:47;7.00;99.90
28773;DHT22;15925;51.222;5.678;2023-12-14T04:10:13;7.00;99.90
28773;DHT22;15925;51.222;5.678;2023-12-14T04:12:40;7.10;99.90
28773;DHT22;15925;51.222;5.678;2023-12-14T04:15:06;7.10;99.90
28773;DHT22;15925;51.222;5.678;2023-12-14T04:17:33;7.10;99.90
28773;DHT22;15925;51.222;5.678;2023-12-14T04:19:59;7.00;99.90
28773;DHT22;15925;51.222;5.678;2023-12-14T04:22:26;6.90;99.90
28773;DHT22;15925;51.222;5.678;2023-12-14T04:24:52;6.90;99.90
28773;DHT22;15925;51.222;5.678;2023-12-14T04:27:18;6.80;99.90
28773;DHT22;15925;51.222;5.678;2023-12-14T04:29:43;6.80;99.90
28773;DHT22;15925;51.222;5.678;2023-12-14T04:32:09;6.90;99.90
28773;DHT22;15925;51.222;5.678;2023-12-14T04:34:35;6.90;99.90
28773;DHT22;15925;51.222;5.678;2023-12-14T04:37:01;7.00;99.90
28773;DHT22;15925;51.222;5.678;2023-12-14T04:39:27;7.00;99.90
28773;DHT22;15925;51.222;5.678;2023-12-14T04:41:53;6.90;99.90
28773;DHT22;15925;51.222;5.678;2023-12-14T04:44:20;6.80;99.90
28773;DHT22;15925;51.222;5.678;2023-12-14T04:46:49;6.80;99.90
28773;DHT22;15925;51.222;5.678;2023-12-14T04:49:18;6.80;99.90
28773;DHT22;15925;51.222;5.678;2023-12-14T04:51:45;6.80;99.90
28773;DHT22;15925;51.222;5.678;2023-12-14T04:54:10;6.60;99.90
28773;DHT22;15925;51.222;5.678;2023-12-14T04:56:36;6.70;99.90
28773;DHT22;15925;51.222;5.678;2023-12-14T04:59:06;6.70;99.90
28773;DHT22;15925;51.222;5.678;2023-12-14T05:01:32;6.70;99.90
28773;DHT22;15925;51.222;5.678;2023-12-14T05:03:57;6.70;99.90
28773;DHT22;15925;51.222;5.678;2023-12-14T05:06:23;6.70;99.90
28773;DHT22;15925;51.222;5.678;2023-12-14T05:08:49;6.70;99.90
28773;DHT22;15925;51.222;5.678;2023-12-14T05:11:14;6.70;99.90
28773;DHT22;15925;51.222;5.678;2023-12-14T05:13:41;6.70;99.90
28773;DHT22;15925;51.222;5.678;2023-12-14T05:16:12;6.70;99.90
28773;DHT22;15925;51.222;5.678;2023-12-14T05:18:37;6.80;99.90
28773;DHT22;15925;51.222;5.678;2023-12-14T05:21:03;6.70;99.90
28773;DHT22;15925;51.222;5.678;2023-12-14T05:23:29;6.80;99.90
28773;DHT22;15925;51.222;5.678;2023-12-14T05:25:55;6.80;99.90
28773;DHT22;15925;51.222;5.678;2023-12-14T05:28:21;6.90;99.90
28773;DHT22;15925;51.222;5.678;2023-12-14T05:30:46;6.90;99.90
28773;DHT22;15925;51.222;5.678;2023-12-14T05:33:12;6.80;99.90
28773;DHT22;15925;51.222;5.678;2023-12-14T05:35:38;6.70;99.90
28773;DHT22;15925;51.222;5.678;2023-12-14T05:38:03;6.70;99.90
28773;DHT22;15925;51.222;5.678;2023-12-14T05:40:29;6.70;99.90
28773;DHT22;15925;51.222;5.678;2023-12-14T05:42:55;6.60;99.90
28773;DHT22;15925;51.222;5.678;2023-12-14T05:45:20;6.50;99.90
28773;DHT22;15925;51.222;5.678;2023-12-14T05:47:46;6.60;99.90
28773;DHT22;15925;51.222;5.678;2023-12-14T05:50:12;6.60;99.90
28773;DHT22;15925;51.222;5.678;2023-12-14T05:52:38;6.60;99.90
28773;DHT22;15925;51.222;5.678;2023-12-14T05:55:04;6.60;99.90
28773;DHT22;15925;51.222;5.678;2023-12-14T05:57:30;6.60;99.90
28773;DHT22;15925;51.222;5.678;2023-12-14T05:59:56;6.50;99.90
28773;DHT22;15925;51.222;5.678;2023-12-14T06:02:22;6.50;99.90
28773;DHT22;15925;51.222;5.678;2023-12-14T06:04:48;6.50;99.90
28773;DHT22;15925;51.222;5.678;2023-12-14T06:07:17;6.50;99.90
28773;DHT22;15925;51.222;5.678;2023-12-14T06:09:43;6.50;99.90
28773;DHT22;15925;51.222;5.678;2023-12-14T06:12:09;6.50;99.90
28773;DHT22;15925;51.222;5.678;2023-12-14T06:14:35;6.50;99.90
28773;DHT22;15925;51.222;5.678;2023-12-14T06:17:01;6.40;99.90
28773;DHT22;15925;51.222;5.678;2023-12-14T06:19:27;6.30;99.90
28773;DHT22;15925;51.222;5.678;2023-12-14T06:21:52;6.40;99.90
28773;DHT22;15925;51.222;5.678;2023-12-14T06:24:18;6.30;99.90
28773;DHT22;15925;51.222;5.678;2023-12-14T06:26:45;6.30;99.90
28773;DHT22;15925;51.222;5.678;2023-12-14T06:29:11;6.40;99.90
28773;DHT22;15925;51.222;5.678;2023-12-14T06:31:38;6.30;99.90
28773;DHT22;15925;51.222;5.678;2023-12-14T06:34:04;6.40;99.90
28773;DHT22;15925;51.222;5.678;2023-12-14T06:36:30;6.50;99.90
28773;DHT22;15925;51.222;5.678;2023-12-14T06:38:57;6.50;99.90
28773;DHT22;15925;51.222;5.678;2023-12-14T06:41:23;6.50;99.90
28773;DHT22;15925;51.222;5.678;2023-12-14T06:43:50;6.40;99.90
28773;DHT22;15925;51.222;5.678;2023-12-14T06:46:16;6.50;99.90
28773;DHT22;15925;51.222;5.678;2023-12-14T06:48:42;6.60;99.90
28773;DHT22;15925;51.222;5.678;2023-12-14T06:51:07;6.70;99.90
28773;DHT22;15925;51.222;5.678;2023-12-14T06:53:34;6.60;99.90
28773;DHT22;15925;51.222;5.678;2023-12-14T06:56:01;6.60;99.90
28773;DHT22;15925;51.222;5.678;2023-12-14T06:58:26;6.60;99.90
28773;DHT22;15925;51.222;5.678;2023-12-14T07:00:52;6.50;99.90
28773;DHT22;15925;51.222;5.678;2023-12-14T07:03:18;6.50;99.90
28773;DHT22;15925;51.222;5.678;2023-12-14T07:05:44;6.50;99.90
28773;DHT22;15925;51.222;5.678;2023-12-14T07:08:10;6.50;99.90
28773;DHT22;15925;51.222;5.678;2023-12-14T07:10:35;6.50;99.90
28773;DHT22;15925;51.222;5.678;2023-12-14T07:13:01;6.50;99.90
28773;DHT22;15925;51.222;5.678;2023-12-14T07:15:27;6.50;99.90
28773;DHT22;15925;51.222;5.678;2023-12-14T07:17:52;6.60;99.90
28773;DHT22;15925;51.222;5.678;2023-12-14T07:20:18;6.60;99.90
28773;DHT22;15925;51.222;5.678;2023-12-14T07:22:44;6.60;99.90
28773;DHT22;15925;51.222;5.678;2023-12-14T07:25:09;6.60;99.90
28773;DHT22;15925;51.222;5.678;2023-12-14T07:27:35;6.60;99.90
28773;DHT22;15925;51.222;5.678;2023-12-14T07:30:01;6.50;99.90
28773;DHT22;15925;51.222;5.678;2023-12-14T07:32:27;6.50;99.90
28773;DHT22;15925;51.222;5.678;2023-12-14T07:34:53;6.50;99.90
28773;DHT22;15925;51.222;5.678;2023-12-14T07:37:18;6.50;99.90
28773;DHT22;15925;51.222;5.678;2023-12-14T07:39:44;6.60;99.90
28773;DHT22;15925;51.222;5.678;2023-12-14T07:42:10;6.50;99.90
28773;DHT22;15925;51.222;5.678;2023-12-14T07:44:36;6.70;99.90
28773;DHT22;15925;51.222;5.678;2023-12-14T07:47:03;6.60;99.90
28773;DHT22;15925;51.222;5.678;2023-12-14T07:49:29;6.50;99.90
28773;DHT22;15925;51.222;5.678;2023-12-14T07:51:54;6.60;99.90
28773;DHT22;15925;51.222;5.678;2023-12-14T07:54:20;6.70;99.90
28773;DHT22;15925;51.222;5.678;2023-12-14T07:56:46;6.60;99.90
28773;DHT22;15925;51.222;5.678;2023-12-14T07:59:13;6.60;99.90
28773;DHT22;15925;51.222;5.678;2023-12-14T08:01:38;6.50;99.90
28773;DHT22;15925;51.222;5.678;2023-12-14T08:04:04;6.50;99.90
28773;DHT22;15925;51.222;5.678;2023-12-14T08:06:30;6.50;99.90
28773;DHT22;15925;51.222;5.678;2023-12-14T08:08:58;6.50;99.90
28773;DHT22;15925;51.222;5.678;2023-12-14T08:11:24;6.50;99.90
28773;DHT22;15925;51.222;5.678;2023-12-14T08:13:50;6.50;99.90
28773;DHT22;15925;51.222;5.678;2023-12-14T08:16:15;6.50;99.90
28773;DHT22;15925;51.222;5.678;2023-12-14T08:18:43;6.50;99.90
28773;DHT22;15925;51.222;5.678;2023-12-14T08:21:11;6.40;99.90
28773;DHT22;15925;51.222;5.678;2023-12-14T08:23:37;6.50;99.90
28773;DHT22;15925;51.222;5.678;2023-12-14T08:26:06;6.50;99.90
28773;DHT22;15925;51.222;5.678;2023-12-14T08:28:33;6.50;99.90
28773;DHT22;15925;51.222;5.678;2023-12-14T08:31:00;6.50;99.90
28773;DHT22;15925;51.222;5.678;2023-12-14T08:33:28;6.50;99.90
28773;DHT22;15925;51.222;5.678;2023-12-14T08:35:55;6.60;99.90
28773;DHT22;15925;51.222;5.678;2023-12-14T08:38:20;6.50;99.90
28773;DHT22;15925;51.222;5.678;2023-12-14T08:40:46;6.50;99.90
28773;DHT22;15925;51.222;5.678;2023-12-14T08:43:12;6.50;99.90
28773;DHT22;15925;51.222;5.678;2023-12-14T08:45:38;6.50;99.90
28773;DHT22;15925;51.222;5.678;2023-12-14T08:48:04;6.60;99.90
28773;DHT22;15925;51.222;5.678;2023-12-14T08:50:30;6.60;99.90
28773;DHT22;15925;51.222;5.678;2023-12-14T08:52:56;6.70;99.90
28773;DHT22;15925;51.222;5.678;2023-12-14T08:55:24;6.70;99.90
28773;DHT22;15925;51.222;5.678;2023-12-14T08:57:50;6.70;99.90
28773;DHT22;15925;51.222;5.678;2023-12-14T09:00:17;6.70;99.90
28773;DHT22;15925;51.222;5.678;2023-12-14T09:02:43;6.60;99.90
28773;DHT22;15925;51.222;5.678;2023-12-14T09:05:12;6.60;99.90
28773;DHT22;15925;51.222;5.678;2023-12-14T09:07:38;6.50;99.90
28773;DHT22;15925;51.222;5.678;2023-12-14T09:10:04;6.50;99.90
28773;DHT22;15925;51.222;5.678;2023-12-14T09:12:30;6.50;99.90
28773;DHT22;15925;51.222;5.678;2023-12-14T09:14:56;6.50;99.90
28773;DHT22;15925;51.222;5.678;2023-12-14T09:17:22;6.30;99.90
28773;DHT22;15925;51.222;5.678;2023-12-14T09:19:48;6.30;99.90
28773;DHT22;15925;51.222;5.678;2023-12-14T09:22:14;6.30;99.90
28773;DHT22;15925;51.222;5.678;2023-12-14T09:24:39;6.30;99.90
28773;DHT22;15925;51.222;5.678;2023-12-14T09:27:05;6.30;99.90
28773;DHT22;15925;51.222;5.678;2023-12-14T09:29:31;6.30;99.90
28773;DHT22;15925;51.222;5.678;2023-12-14T09:31:56;6.30;99.90
28773;DHT22;15925;51.222;5.678;2023-12-14T09:34:22;6.30;99.90
28773;DHT22;15925;51.222;5.678;2023-12-14T09:36:48;6.20;99.90
28773;DHT22;15925;51.222;5.678;2023-12-14T09:39:14;6.30;99.90
28773;DHT22;15925;51.222;5.678;2023-12-14T09:41:40;6.40;99.90
28773;DHT22;15925;51.222;5.678;2023-12-14T09:44:07;6.30;99.90
28773;DHT22;15925;51.222;5.678;2023-12-14T09:46:35;6.40;99.90
28773;DHT22;15925;51.222;5.678;2023-12-14T09:49:02;6.40;99.90
28773;DHT22;15925;51.222;5.678;2023-12-14T09:51:29;6.40;99.90
28773;DHT22;15925;51.222;5.678;2023-12-14T09:53:56;6.50;99.90
28773;DHT22;15925;51.222;5.678;2023-12-14T09:56:25;6.50;99.90
28773;DHT22;15925;51.222;5.678;2023-12-14T09:58:52;6.60;99.90
28773;DHT22;15925;51.222;5.678;2023-12-14T10:01:27;6.50;99.90
28773;DHT22;15925;51.222;5.678;2023-12-14T10:04:14;6.50;99.90
28773;DHT22;15925;51.222;5.678;2023-12-14T10:06:41;6.40;99.90
28773;DHT22;15925;51.222;5.678;2023-12-14T10:09:08;6.40;99.90
28773;DHT22;15925;51.222;5.678;2023-12-14T10:11:42;6.50;99.90
28773;DHT22;15925;51.222;5.678;2023-12-14T10:14:22;6.50;99.90
28773;DHT22;15925;51.222;5.678;2023-12-14T10:16:50;6.60;99.90
28773;DHT22;15925;51.222;5.678;2023-12-14T10:19:20;6.50;99.90
28773;DHT22;15925;51.222;5.678;2023-12-14T10:21:49;6.30;99.90
28773;DHT22;15925;51.222;5.678;2023-12-14T10:24:16;6.40;99.90
28773;DHT22;15925;51.222;5.678;2023-12-14T10:26:44;6.30;99.90
28773;DHT22;15925;51.222;5.678;2023-12-14T10:29:10;6.40;99.90
28773;DHT22;15925;51.222;5.678;2023-12-14T10:31:36;6.30;99.90
28773;DHT22;15925;51.222;5.678;2023-12-14T10:34:05;6.30;99.90
28773;DHT22;15925;51.222;5.678;2023-12-14T10:36:31;6.30;99.90
28773;DHT22;15925;51.222;5.678;2023-12-14T10:39:00;6.30;99.90
28773;DHT22;15925;51.222;5.678;2023-12-14T10:41:27;6.20;99.90
28773;DHT22;15925;51.222;5.678;2023-12-14T10:43:56;6.20;99.90
28773;DHT22;15925;51.222;5.678;2023-12-14T10:46:23;6.20;99.90
28773;DHT22;15925;51.222;5.678;2023-12-14T10:48:50;6.20;99.90
28773;DHT22;15925;51.222;5.678;2023-12-14T10:51:19;6.20;99.90
28773;DHT22;15925;51.222;5.678;2023-12-14T10:53:46;6.20;99.90
28773;DHT22;15925;51.222;5.678;2023-12-14T10:56:13;6.20;99.90
28773;DHT22;15925;51.222;5.678;2023-12-14T10:58:53;6.20;99.90
28773;DHT22;15925;51.222;5.678;2023-12-14T11:01:21;6.20;99.90
28773;DHT22;15925;51.222;5.678;2023-12-14T11:03:48;6.30;99.90
28773;DHT22;15925;51.222;5.678;2023-12-14T11:08:54;6.30;99.90
28773;DHT22;15925;51.222;5.678;2023-12-14T11:11:21;6.30;99.90
28773;DHT22;15925;51.222;5.678;2023-12-14T11:13:52;6.40;99.90
28773;DHT22;15925;51.222;5.678;2023-12-14T11:16:22;6.40;99.90
28773;DHT22;15925;51.222;5.678;2023-12-14T11:18:48;6.50;99.90
28773;DHT22;15925;51.222;5.678;2023-12-14T11:21:20;6.50;99.90
28773;DHT22;15925;51.222;5.678;2023-12-14T11:23:50;6.50;99.90
28773;DHT22;15925;51.222;5.678;2023-12-14T11:26:21;6.50;99.90
28773;DHT22;15925;51.222;5.678;2023-12-14T11:28:50;6.60;99.90
28773;DHT22;15925;51.222;5.678;2023-12-14T11:31:16;6.60;99.90
28773;DHT22;15925;51.222;5.678;2023-12-14T11:33:43;6.60;99.90
28773;DHT22;15925;51.222;5.678;2023-12-14T11:36:11;6.60;99.90
28773;DHT22;15925;51.222;5.678;2023-12-14T11:38:37;6.50;99.90
28773;DHT22;15925;51.222;5.678;2023-12-14T11:41:03;6.50;99.90
28773;DHT22;15925;51.222;5.678;2023-12-14T11:43:29;6.60;99.90
28773;DHT22;15925;51.222;5.678;2023-12-14T11:45:55;6.60;99.90
28773;DHT22;15925;51.222;5.678;2023-12-14T11:48:24;6.70;99.90
28773;DHT22;15925;51.222;5.678;2023-12-14T11:50:50;6.70;99.90
28773;DHT22;15925;51.222;5.678;2023-12-14T11:53:15;6.60;99.90
28773;DHT22;15925;51.222;5.678;2023-12-14T11:55:42;6.60;99.90
28773;DHT22;15925;51.222;5.678;2023-12-14T11:58:09;6.60;99.90
28773;DHT22;15925;51.222;5.678;2023-12-14T12:00:36;6.70;99.90
28773;DHT22;15925;51.222;5.678;2023-12-14T12:03:20;6.70;99.90
28773;DHT22;15925;51.222;5.678;2023-12-14T12:05:51;6.70;99.90
28773;DHT22;15925;51.222;5.678;2023-12-14T12:08:19;6.70;99.90
28773;DHT22;15925;51.222;5.678;2023-12-14T12:10:46;6.60;99.90
28773;DHT22;15925;51.222;5.678;2023-12-14T12:13:21;6.70;99.90
28773;DHT22;15925;51.222;5.678;2023-12-14T12:15:47;6.70;99.90
28773;DHT22;15925;51.222;5.678;2023-12-14T12:18:17;6.60;99.90
28773;DHT22;15925;51.222;5.678;2023-12-14T12:20:43;6.60;99.90
28773;DHT22;15925;51.222;5.678;2023-12-14T12:23:08;6.60;99.90
28773;DHT22;15925;51.222;5.678;2023-12-14T12:25:34;6.50;99.90
28773;DHT22;15925;51.222;5.678;2023-12-14T12:28:02;6.50;99.90
28773;DHT22;15925;51.222;5.678;2023-12-14T12:30:29;6.50;99.90
28773;DHT22;15925;51.222;5.678;2023-12-14T12:32:55;6.50;99.90
28773;DHT22;15925;51.222;5.678;2023-12-14T12:35:22;6.50;99.90
28773;DHT22;15925;51.222;5.678;2023-12-14T12:37:49;6.50;99.90
28773;DHT22;15925;51.222;5.678;2023-12-14T12:40:22;6.60;99.90
28773;DHT22;15925;51.222;5.678;2023-12-14T12:42:49;6.50;99.90
28773;DHT22;15925;51.222;5.678;2023-12-14T12:45:16;6.50;99.90
28773;DHT22;15925;51.222;5.678;2023-12-14T12:47:48;6.50;99.90
28773;DHT22;15925;51.222;5.678;2023-12-14T12:50:14;6.50;99.90
28773;DHT22;15925;51.222;5.678;2023-12-14T12:52:40;6.40;99.90
28773;DHT22;15925;51.222;5.678;2023-12-14T12:55:08;6.50;99.90
28773;DHT22;15925;51.222;5.678;2023-12-14T12:57:35;6.50;99.90
28773;DHT22;15925;51.222;5.678;2023-12-14T13:00:01;6.50;99.90
28773;DHT22;15925;51.222;5.678;2023-12-14T13:02:29;6.40;99.90
28773;DHT22;15925;51.222;5.678;2023-12-14T13:04:55;6.40;99.90
28773;DHT22;15925;51.222;5.678;2023-12-14T13:07:20;6.30;99.90
28773;DHT22;15925;51.222;5.678;2023-12-14T13:09:47;6.40;99.90
28773;DHT22;15925;51.222;5.678;2023-12-14T13:12:12;6.30;99.90
28773;DHT22;15925;51.222;5.678;2023-12-14T13:14:38;6.30;99.90
28773;DHT22;15925;51.222;5.678;2023-12-14T13:17:05;6.30;99.90
28773;DHT22;15925;51.222;5.678;2023-12-14T13:19:31;6.30;99.90
28773;DHT22;15925;51.222;5.678;2023-12-14T13:21:56;6.30;99.90
28773;DHT22;15925;51.222;5.678;2023-12-14T13:24:23;6.30;99.90
28773;DHT22;15925;51.222;5.678;2023-12-14T13:26:50;6.30;99.90
28773;DHT22;15925;51.222;5.678;2023-12-14T13:29:16;6.40;99.90
28773;DHT22;15925;51.222;5.678;2023-12-14T13:31:41;6.40;99.90
28773;DHT22;15925;51.222;5.678;2023-12-14T13:34:07;6.30;99.90
28773;DHT22;15925;51.222;5.678;2023-12-14T13:36:33;6.40;99.90
28773;DHT22;15925;51.222;5.678;2023-12-14T13:38:59;6.50;99.90
28773;DHT22;15925;51.222;5.678;2023-12-14T13:41:27;6.40;99.90
28773;DHT22;15925;51.222;5.678;2023-12-14T13:43:52;6.40;99.90
28773;DHT22;15925;51.222;5.678;2023-12-14T13:46:18;6.40;99.90
28773;DHT22;15925;51.222;5.678;2023-12-14T13:48:44;6.40;99.90
28773;DHT22;15925;51.222;5.678;2023-12-14T13:51:10;6.40;99.90
28773;DHT22;15925;51.222;5.678;2023-12-14T13:53:35;6.40;99.90
28773;DHT22;15925;51.222;5.678;2023-12-14T13:56:01;6.40;99.90
28773;DHT22;15925;51.222;5.678;2023-12-14T13:58:28;6.40;99.90
28773;DHT22;15925;51.222;5.678;2023-12-14T14:00:54;6.40;99.90
28773;DHT22;15925;51.222;5.678;2023-12-14T14:03:20;6.40;99.90
28773;DHT22;15925;51.222;5.678;2023-12-14T14:05:45;6.40;99.90
28773;DHT22;15925;51.222;5.678;2023-12-14T14:08:11;6.40;99.90
28773;DHT22;15925;51.222;5.678;2023-12-14T14:10:37;6.60;99.90
28773;DHT22;15925;51.222;5.678;2023-12-14T14:13:03;6.40;99.90
28773;DHT22;15925;51.222;5.678;2023-12-14T14:15:28;6.60;99.90
28773;DHT22;15925;51.222;5.678;2023-12-14T14:17:54;6.60;99.90
28773;DHT22;15925;51.222;5.678;2023-12-14T14:20:21;6.60;99.90
28773;DHT22;15925;51.222;5.678;2023-12-14T14:22:47;6.70;99.90
28773;DHT22;15925;51.222;5.678;2023-12-14T14:25:13;6.80;99.90
28773;DHT22;15925;51.222;5.678;2023-12-14T14:27:39;6.90;99.90
28773;DHT22;15925;51.222;5.678;2023-12-14T14:30:07;6.80;99.90
28773;DHT22;15925;51.222;5.678;2023-12-14T14:32:32;6.90;99.90
28773;DHT22;15925;51.222;5.678;2023-12-14T14:35:01;7.00;99.90
28773;DHT22;15925;51.222;5.678;2023-12-14T14:37:26;7.10;99.90
28773;DHT22;15925;51.222;5.678;2023-12-14T14:39:52;7.20;99.90
28773;DHT22;15925;51.222;5.678;2023-12-14T14:42:18;7.20;99.90
28773;DHT22;15925;51.222;5.678;2023-12-14T14:44:43;7.20;99.90
28773;DHT22;15925;51.222;5.678;2023-12-14T14:47:09;7.30;99.90
28773;DHT22;15925;51.222;5.678;2023-12-14T14:49:35;7.40;99.90
28773;DHT22;15925;51.222;5.678;2023-12-14T14:52:01;7.40;99.90
28773;DHT22;15925;51.222;5.678;2023-12-14T14:54:27;7.40;99.90
28773;DHT22;15925;51.222;5.678;2023-12-14T14:56:52;7.40;99.90
28773;DHT22;15925;51.222;5.678;2023-12-14T14:59:18;7.30;99.90
28773;DHT22;15925;51.222;5.678;2023-12-14T15:01:44;7.10;99.90
28773;DHT22;15925;51.222;5.678;2023-12-14T15:04:13;7.10;99.90
28773;DHT22;15925;51.222;5.678;2023-12-14T15:06:38;7.00;99.90
28773;DHT22;15925;51.222;5.678;2023-12-14T15:09:08;7.20;99.90
28773;DHT22;15925;51.222;5.678;2023-12-14T15:11:33;7.30;99.90
28773;DHT22;15925;51.222;5.678;2023-12-14T15:13:59;7.30;99.90
28773;DHT22;15925;51.222;5.678;2023-12-14T15:16:25;7.40;99.90
28773;DHT22;15925;51.222;5.678;2023-12-14T15:18:52;7.40;99.90
28773;DHT22;15925;51.222;5.678;2023-12-14T15:21:18;7.50;99.90
28773;DHT22;15925;51.222;5.678;2023-12-14T15:23:44;7.50;99.90
28773;DHT22;15925;51.222;5.678;2023-12-14T15:26:13;7.50;99.90
28773;DHT22;15925;51.222;5.678;2023-12-14T15:28:39;7.50;99.90
28773;DHT22;15925;51.222;5.678;2023-12-14T15:31:06;7.60;99.90
28773;DHT22;15925;51.222;5.678;2023-12-14T15:33:31;7.60;99.90
28773;DHT22;15925;51.222;5.678;2023-12-14T15:35:58;7.60;99.90
28773;DHT22;15925;51.222;5.678;2023-12-14T15:38:24;7.60;99.90
28773;DHT22;15925;51.222;5.678;2023-12-14T15:40:50;7.50;99.90
28773;DHT22;15925;51.222;5.678;2023-12-14T15:43:16;7.50;99.90
28773;DHT22;15925;51.222;5.678;2023-12-14T15:45:42;7.50;99.90